sensor_id;sensor_type;location;lat;lon;timestamp;P1;P2;P0
76045;PMS7003;64741;41.730;44.788;2023-03-11T00:04:11;21.6;19.4;14.6
76045;PMS7003;64741;41.730;44.788;2023-03-11T00:09:07;19.6;18.8;13
76045;PMS7003;64741;41.730;44.788;2023-03-11T00:14:13;20.2;18.2;14
76045;PMS7003;64741;41.730;44.788;2023-03-11T00:19:11;19.6;18.2;13.8
76045;PMS7003;64741;41.730;44.788;2023-03-11T00:23:57;18;16.6;12.8
76045;PMS7003;64741;41.730;44.788;2023-03-11T00:29:09;19.4;17;13.2
76045;PMS7003;64741;41.730;44.788;2023-03-11T00:34:07;18.6;17.6;12.6
76045;PMS7003;64741;41.730;44.788;2023-03-11T00:39:11;20;17.8;14
76045;PMS7003;64741;41.730;44.788;2023-03-11T00:44:07;20;17.6;12.8
76045;PMS7003;64741;41.730;44.788;2023-03-11T00:49:09;20;18;13.8
76045;PMS7003;64741;41.730;44.788;2023-03-11T00:54:07;18.8;16;12
76045;PMS7003;64741;41.730;44.788;2023-03-11T00:58:57;18.8;16;12
76045;PMS7003;64741;41.730;44.788;2023-03-11T01:04:13;16.4;13.6;10.8
76045;PMS7003;64741;41.730;44.788;2023-03-11T01:09:09;16;15;10.8
76045;PMS7003;64741;41.730;44.788;2023-03-11T01:14:03;13.6;13;10
76045;PMS7003;64741;41.730;44.788;2023-03-11T01:19:07;17.6;13.4;10.6
76045;PMS7003;64741;41.730;44.788;2023-03-11T01:24:07;15.2;13.4;10.6
76045;PMS7003;64741;41.730;44.788;2023-03-11T01:29:13;15.6;13.2;9.4
76045;PMS7003;64741;41.730;44.788;2023-03-11T01:34:09;14;12;9.2
76045;PMS7003;64741;41.730;44.788;2023-03-11T01:39:09;14.4;14;10.2
76045;PMS7003;64741;41.730;44.788;2023-03-11T01:44:09;13.2;11;8.4
76045;PMS7003;64741;41.730;44.788;2023-03-11T01:48:33;12.4;11;8.4
76045;PMS7003;64741;41.730;44.788;2023-03-11T01:54:15;14.6;11.4;8.4
76045;PMS7003;64741;41.730;44.788;2023-03-11T01:59:07;12.5;11.8;9.3
76045;PMS7003;64741;41.730;44.788;2023-03-11T02:04:11;14.2;11.2;8.8
76045;PMS7003;64741;41.730;44.788;2023-03-11T02:09:09;13.6;11.6;8.8
76045;PMS7003;64741;41.730;44.788;2023-03-11T02:14:07;12.6;11.4;8.4
76045;PMS7003;64741;41.730;44.788;2023-03-11T02:19:11;13;11.2;8
76045;PMS7003;64741;41.730;44.788;2023-03-11T02:24:04;12.2;10.8;8.4
76045;PMS7003;64741;41.730;44.788;2023-03-11T02:29:05;11;9.2;7.6
76045;PMS7003;64741;41.730;44.788;2023-03-11T02:34:08;10.2;8;6.2
76045;PMS7003;64741;41.730;44.788;2023-03-11T02:39:05;11.2;9.4;7.4
76045;PMS7003;64741;41.730;44.788;2023-03-11T02:44:12;11.6;9.6;7.4
76045;PMS7003;64741;41.730;44.788;2023-03-11T02:49:05;12.8;10.6;8.2
76045;PMS7003;64741;41.730;44.788;2023-03-11T02:54:07;12;10.2;7.8
76045;PMS7003;64741;41.730;44.788;2023-03-11T02:59:07;10;9.4;7.2
76045;PMS7003;64741;41.730;44.788;2023-03-11T03:04:05;9.6;8.4;6.6
76045;PMS7003;64741;41.730;44.788;2023-03-11T03:09:13;9;8.4;6.4
76045;PMS7003;64741;41.730;44.788;2023-03-11T03:14:05;9.2;8.8;6.8
76045;PMS7003;64741;41.730;44.788;2023-03-11T03:19:09;9.6;8.4;6.2
76045;PMS7003;64741;41.730;44.788;2023-03-11T03:24:07;8.8;8.2;6
76045;PMS7003;64741;41.730;44.788;2023-03-11T03:29:07;8.2;6.8;5.6
76045;PMS7003;64741;41.730;44.788;2023-03-11T03:34:13;8.6;7.6;6.2
76045;PMS7003;64741;41.730;44.788;2023-03-11T03:39:07;8.2;7.4;5.8
76045;PMS7003;64741;41.730;44.788;2023-03-11T03:44:11;8.8;8.2;6.4
76045;PMS7003;64741;41.730;44.788;2023-03-11T03:49:11;8.6;7.8;6.4
76045;PMS7003;64741;41.730;44.788;2023-03-11T03:54:07;7;7;5.2
76045;PMS7003;64741;41.730;44.788;2023-03-11T03:59:15;8.6;6.8;4.8
76045;PMS7003;64741;41.730;44.788;2023-03-11T04:04:07;7.2;7.2;5.8
76045;PMS7003;64741;41.730;44.788;2023-03-11T04:09:11;7.2;7;5.4
76045;PMS7003;64741;41.730;44.788;2023-03-11T04:14:11;9;6;4.4
76045;PMS7003;64741;41.730;44.788;2023-03-11T04:19:07;8.4;7.2;5
76045;PMS7003;64741;41.730;44.788;2023-03-11T04:24:05;8.2;6.6;5.2
76045;PMS7003;64741;41.730;44.788;2023-03-11T04:29:07;7.6;6.2;4.8
76045;PMS7003;64741;41.730;44.788;2023-03-11T04:34:09;7.6;6.4;5.2
76045;PMS7003;64741;41.730;44.788;2023-03-11T04:39:07;8.2;6.8;5
76045;PMS7003;64741;41.730;44.788;2023-03-11T04:44:05;6.4;5.4;4.2
76045;PMS7003;64741;41.730;44.788;2023-03-11T04:49:09;5.6;5;4.2
76045;PMS7003;64741;41.730;44.788;2023-03-11T04:54:05;7.2;6;4.8
76045;PMS7003;64741;41.730;44.788;2023-03-11T04:59:09;7.4;6.4;4.4
76045;PMS7003;64741;41.730;44.788;2023-03-11T05:04:07;5.4;5;3.8
76045;PMS7003;64741;41.730;44.788;2023-03-11T05:09:07;7.6;6.2;4.4
76045;PMS7003;64741;41.730;44.788;2023-03-11T05:14:13;6.2;5.4;4.2
76045;PMS7003;64741;41.730;44.788;2023-03-11T05:19:07;5.8;5.4;4.6
76045;PMS7003;64741;41.730;44.788;2023-03-11T05:24:09;6;5.4;4.2
76045;PMS7003;64741;41.730;44.788;2023-03-11T05:29:07;5.8;4.8;3.6
76045;PMS7003;64741;41.730;44.788;2023-03-11T05:34:13;6.6;5.2;3.8
76045;PMS7003;64741;41.730;44.788;2023-03-11T05:39:07;7.2;6;5.2
76045;PMS7003;64741;41.730;44.788;2023-03-11T05:44:07;5.6;5.2;4.4
76045;PMS7003;64741;41.730;44.788;2023-03-11T05:49:09;5.4;4.6;3.2
76045;PMS7003;64741;41.730;44.788;2023-03-11T05:54:05;6.2;5;3.4
76045;PMS7003;64741;41.730;44.788;2023-03-11T05:59:11;6.2;5.4;4.4
76045;PMS7003;64741;41.730;44.788;2023-03-11T06:04:07;5.4;4.2;3.4
76045;PMS7003;64741;41.730;44.788;2023-03-11T06:09:10;6.4;5.4;4
76045;PMS7003;64741;41.730;44.788;2023-03-11T06:14:13;5;4.6;3.6
76045;PMS7003;64741;41.730;44.788;2023-03-11T06:19:05;4.8;4.8;3.8
76045;PMS7003;64741;41.730;44.788;2023-03-11T06:24:15;5;4.4;3.6
76045;PMS7003;64741;41.730;44.788;2023-03-11T06:29:12;5.4;4.8;3.8
76045;PMS7003;64741;41.730;44.788;2023-03-11T06:34:07;5.4;4.8;3
76045;PMS7003;64741;41.730;44.788;2023-03-11T06:39:10;4.4;4;3
76045;PMS7003;64741;41.730;44.788;2023-03-11T06:44:05;4.4;3.6;2.4
76045;PMS7003;64741;41.730;44.788;2023-03-11T06:49:09;4;3.8;2.4
76045;PMS7003;64741;41.730;44.788;2023-03-11T06:54:09;3.6;3.4;3.2
76045;PMS7003;64741;41.730;44.788;2023-03-11T06:59:09;5.4;4;3
76045;PMS7003;64741;41.730;44.788;2023-03-11T07:04:11;3.8;3.4;2.4
76045;PMS7003;64741;41.730;44.788;2023-03-11T07:09:07;4.5;4;2.5
76045;PMS7003;64741;41.730;44.788;2023-03-11T07:14:13;4.6;3.8;2.8
76045;PMS7003;64741;41.730;44.788;2023-03-11T07:18:37;4.4;3.8;3
76045;PMS7003;64741;41.730;44.788;2023-03-11T07:24:11;7.8;6.2;5.2
76045;PMS7003;64741;41.730;44.788;2023-03-11T07:29:13;8.4;8;6
76045;PMS7003;64741;41.730;44.788;2023-03-11T07:34:04;7.8;5.8;4.8
76045;PMS7003;64741;41.730;44.788;2023-03-11T07:39:11;9.2;8.2;6
76045;PMS7003;64741;41.730;44.788;2023-03-11T07:43:58;13.4;12.2;10.2
76045;PMS7003;64741;41.730;44.788;2023-03-11T07:49:09;15.4;14;11.2
76045;PMS7003;64741;41.730;44.788;2023-03-11T07:54:11;19.6;17.4;13
76045;PMS7003;64741;41.730;44.788;2023-03-11T07:59:05;18.4;17.2;12.6
76045;PMS7003;64741;41.730;44.788;2023-03-11T08:04:12;19.2;16.8;12.6
76045;PMS7003;64741;41.730;44.788;2023-03-11T08:09:06;21.2;19;14
76045;PMS7003;64741;41.730;44.788;2023-03-11T08:14:07;22.6;21;16
76045;PMS7003;64741;41.730;44.788;2023-03-11T08:18:57;29;24.8;19.2
76045;PMS7003;64741;41.730;44.788;2023-03-11T08:24:01;65.4;52.2;39.2
76045;PMS7003;64741;41.730;44.788;2023-03-11T08:29:07;63.2;50.6;36.8
76045;PMS7003;64741;41.730;44.788;2023-03-11T08:34:06;59;47.4;33.6
76045;PMS7003;64741;41.730;44.788;2023-03-11T08:39:07;54.2;43.6;31.6
76045;PMS7003;64741;41.730;44.788;2023-03-11T08:44:11;52.4;42;29.8
76045;PMS7003;64741;41.730;44.788;2023-03-11T08:49:04;47.2;39.2;28
76045;PMS7003;64741;41.730;44.788;2023-03-11T08:54:09;46;38.2;27.2
76045;PMS7003;64741;41.730;44.788;2023-03-11T08:59:05;46.8;38;27
76045;PMS7003;64741;41.730;44.788;2023-03-11T09:04:07;60;46.8;32.8
76045;PMS7003;64741;41.730;44.788;2023-03-11T09:09:11;79.4;68.2;46.8
76045;PMS7003;64741;41.730;44.788;2023-03-11T09:14:05;86.6;78;54.8
76045;PMS7003;64741;41.730;44.788;2023-03-11T09:19:11;88.6;79.4;55.4
76045;PMS7003;64741;41.730;44.788;2023-03-11T09:24:05;90.2;80.6;56.4
76045;PMS7003;64741;41.730;44.788;2023-03-11T09:28:53;90.4;82.2;55.6
76045;PMS7003;64741;41.730;44.788;2023-03-11T09:34:11;96.2;84.2;57.8
76045;PMS7003;64741;41.730;44.788;2023-03-11T09:39:07;93.8;83.6;57.6
76045;PMS7003;64741;41.730;44.788;2023-03-11T09:44:11;94.2;85.8;59.4
76045;PMS7003;64741;41.730;44.788;2023-03-11T09:49:15;98.2;85.6;60.6
76045;PMS7003;64741;41.730;44.788;2023-03-11T09:54:08;95.6;85.8;58.2
76045;PMS7003;64741;41.730;44.788;2023-03-11T09:59:13;98.4;85.6;58
76045;PMS7003;64741;41.730;44.788;2023-03-11T10:04:06;97.2;87;60.6
76045;PMS7003;64741;41.730;44.788;2023-03-11T10:09:06;102.2;88.6;59.8
76045;PMS7003;64741;41.730;44.788;2023-03-11T10:14:12;94;83;57.6
76045;PMS7003;64741;41.730;44.788;2023-03-11T10:19:08;92;82.4;56.4
76045;PMS7003;64741;41.730;44.788;2023-03-11T10:24:13;91.2;81.6;56.8
76045;PMS7003;64741;41.730;44.788;2023-03-11T10:29:06;96.4;83.8;58
76045;PMS7003;64741;41.730;44.788;2023-03-11T10:34:09;95.4;81.2;56.4
76045;PMS7003;64741;41.730;44.788;2023-03-11T10:39:09;89.6;78.8;54.2
76045;PMS7003;64741;41.730;44.788;2023-03-11T10:43:34;86.2;76;53.4
76045;PMS7003;64741;41.730;44.788;2023-03-11T10:49:10;84.4;77.4;52.6
76045;PMS7003;64741;41.730;44.788;2023-03-11T10:54:07;85;77;53.2
76045;PMS7003;64741;41.730;44.788;2023-03-11T10:59:16;86.8;75.2;52.4
76045;PMS7003;64741;41.730;44.788;2023-03-11T11:04:22;78.2;69.6;48.2
76045;PMS7003;64741;41.730;44.788;2023-03-11T11:09:13;82;73.4;50.2
76045;PMS7003;64741;41.730;44.788;2023-03-11T11:13:58;78.6;69.6;48.2
76045;PMS7003;64741;41.730;44.788;2023-03-11T11:19:07;77;68.2;48.2
76045;PMS7003;64741;41.730;44.788;2023-03-11T11:24:09;78;68;47.8
76045;PMS7003;64741;41.730;44.788;2023-03-11T11:29:11;76.2;64.4;45.2
76045;PMS7003;64741;41.730;44.788;2023-03-11T11:33:54;74;62.4;43.6
76045;PMS7003;64741;41.730;44.788;2023-03-11T11:39:11;76.2;67;47.6
76045;PMS7003;64741;41.730;44.788;2023-03-11T11:44:08;75.6;66.4;45.4
76045;PMS7003;64741;41.730;44.788;2023-03-11T11:49:10;74.2;63.8;44.6
76045;PMS7003;64741;41.730;44.788;2023-03-11T11:54:14;74;63.4;45.2
76045;PMS7003;64741;41.730;44.788;2023-03-11T11:59:08;74.6;63.4;44.8
76045;PMS7003;64741;41.730;44.788;2023-03-11T12:04:18;72.8;60.4;40.6
76045;PMS7003;64741;41.730;44.788;2023-03-11T12:08:59;72.8;59.6;42.4
76045;PMS7003;64741;41.730;44.788;2023-03-11T12:14:08;72.8;61.2;43
76045;PMS7003;64741;41.730;44.788;2023-03-11T12:19:14;73.5;61.5;43.5
76045;PMS7003;64741;41.730;44.788;2023-03-11T12:24:10;74.2;61.8;43.8
76045;PMS7003;64741;41.730;44.788;2023-03-11T12:29:13;74;63.6;45.4
76045;PMS7003;64741;41.730;44.788;2023-03-11T12:34:08;78;67.2;47.8
76045;PMS7003;64741;41.730;44.788;2023-03-11T12:39:17;83.8;75.4;53.4
76045;PMS7003;64741;41.730;44.788;2023-03-11T12:44:29;88.8;77.4;55
76045;PMS7003;64741;41.730;44.788;2023-03-11T12:49:10;84.4;76;53.2
76045;PMS7003;64741;41.730;44.788;2023-03-11T12:54:19;83.2;73.6;52.8
76045;PMS7003;64741;41.730;44.788;2023-03-11T12:59:18;82.6;73.6;51.6
76045;PMS7003;64741;41.730;44.788;2023-03-11T13:04:17;82;74;51.8
76045;PMS7003;64741;41.730;44.788;2023-03-11T13:09:12;87.2;78.2;55.2
76045;PMS7003;64741;41.730;44.788;2023-03-11T13:14:35;90.8;80.8;55.6
76045;PMS7003;64741;41.730;44.788;2023-03-11T13:20:38;98.8;86.6;58.6
76045;PMS7003;64741;41.730;44.788;2023-03-11T13:30:13;95.4;83;55.8
76045;PMS7003;64741;41.730;44.788;2023-03-11T13:33:53;98.2;88.4;60.6
76045;PMS7003;64741;41.730;44.788;2023-03-11T13:39:02;103.6;91.6;61.8
76045;PMS7003;64741;41.730;44.788;2023-03-11T13:44:11;102.4;88.8;60.2
76045;PMS7003;64741;41.730;44.788;2023-03-11T13:49:05;96.8;87.6;60
76045;PMS7003;64741;41.730;44.788;2023-03-11T13:54:04;96.4;88.6;60.2
76045;PMS7003;64741;41.730;44.788;2023-03-11T13:59:23;101.4;87.6;59.6
76045;PMS7003;64741;41.730;44.788;2023-03-11T14:03:47;97.6;87;58.4
76045;PMS7003;64741;41.730;44.788;2023-03-11T14:09:14;97.8;88.8;59.6
76045;PMS7003;64741;41.730;44.788;2023-03-11T14:14:15;99;86.6;58
76045;PMS7003;64741;41.730;44.788;2023-03-11T14:19:11;92;81.2;56.4
76045;PMS7003;64741;41.730;44.788;2023-03-11T14:24:05;93;81.4;55.8
76045;PMS7003;64741;41.730;44.788;2023-03-11T14:29:06;102.2;88.4;58.8
76045;PMS7003;64741;41.730;44.788;2023-03-11T14:34:12;100.6;87;57.2
76045;PMS7003;64741;41.730;44.788;2023-03-11T14:39:16;101.8;90.6;58.6
76045;PMS7003;64741;41.730;44.788;2023-03-11T14:44:05;101;87.6;58.2
76045;PMS7003;64741;41.730;44.788;2023-03-11T14:48:59;97.2;83;55.6
76045;PMS7003;64741;41.730;44.788;2023-03-11T14:54:06;97.2;84.2;56.6
76045;PMS7003;64741;41.730;44.788;2023-03-11T14:59:10;96.8;83.4;56.6
76045;PMS7003;64741;41.730;44.788;2023-03-11T15:04:06;96.6;83.4;55
76045;PMS7003;64741;41.730;44.788;2023-03-11T15:09:05;98.4;83.8;57
76045;PMS7003;64741;41.730;44.788;2023-03-11T15:14:12;90.4;82.8;54.6
76045;PMS7003;64741;41.730;44.788;2023-03-11T15:18:47;99;84.8;56.6
76045;PMS7003;64741;41.730;44.788;2023-03-11T15:24:14;92.6;82.8;54.8
76045;PMS7003;64741;41.730;44.788;2023-03-11T15:29:10;96;84.2;55.4
76045;PMS7003;64741;41.730;44.788;2023-03-11T15:34:20;96.8;84.4;56.2
76045;PMS7003;64741;41.730;44.788;2023-03-11T15:39:11;92.8;82.8;54.8
76045;PMS7003;64741;41.730;44.788;2023-03-11T15:44:03;92;81.8;53.2
76045;PMS7003;64741;41.730;44.788;2023-03-11T15:49:09;89.6;78.4;52.6
76045;PMS7003;64741;41.730;44.788;2023-03-11T15:54:03;91.8;81;53.4
76045;PMS7003;64741;41.730;44.788;2023-03-11T15:59:05;90;77;50.4
76045;PMS7003;64741;41.730;44.788;2023-03-11T16:04:04;88.2;76.6;51
76045;PMS7003;64741;41.730;44.788;2023-03-11T16:09:05;87.8;77.4;52.8
76045;PMS7003;64741;41.730;44.788;2023-03-11T16:14:10;92.6;82.2;55.8
76045;PMS7003;64741;41.730;44.788;2023-03-11T16:19:05;88.2;74.6;49.4
76045;PMS7003;64741;41.730;44.788;2023-03-11T16:24:05;86;73.8;50
76045;PMS7003;64741;41.730;44.788;2023-03-11T16:29:05;87.4;75.4;50.2
76045;PMS7003;64741;41.730;44.788;2023-03-11T16:34:05;81.4;72;48.4
76045;PMS7003;64741;41.730;44.788;2023-03-11T16:39:09;86;75.2;49.2
76045;PMS7003;64741;41.730;44.788;2023-03-11T16:43:53;82;73;49.8
76045;PMS7003;64741;41.730;44.788;2023-03-11T16:49:03;86.4;74.6;49.6
76045;PMS7003;64741;41.730;44.788;2023-03-11T16:54:05;79.8;70.4;47.6
76045;PMS7003;64741;41.730;44.788;2023-03-11T16:59:05;79;68.8;46.4
76045;PMS7003;64741;41.730;44.788;2023-03-11T17:04:07;77.2;67.2;45.2
76045;PMS7003;64741;41.730;44.788;2023-03-11T17:09:05;78.8;67.6;45
76045;PMS7003;64741;41.730;44.788;2023-03-11T17:14:03;77.2;66.6;45.6
76045;PMS7003;64741;41.730;44.788;2023-03-11T17:19:05;79.2;68;44.4
76045;PMS7003;64741;41.730;44.788;2023-03-11T17:24:05;77.6;68.2;47
76045;PMS7003;64741;41.730;44.788;2023-03-11T17:28:27;76.8;64;44
76045;PMS7003;64741;41.730;44.788;2023-03-11T17:34:05;77;66.2;44.8
76045;PMS7003;64741;41.730;44.788;2023-03-11T17:39:05;77.2;66.6;43.8
76045;PMS7003;64741;41.730;44.788;2023-03-11T17:44:05;76;65.4;44
76045;PMS7003;64741;41.730;44.788;2023-03-11T17:49:05;76.6;66.2;43.6
76045;PMS7003;64741;41.730;44.788;2023-03-11T17:54:07;76.6;65.8;44.4
76045;PMS7003;64741;41.730;44.788;2023-03-11T17:59:03;76.6;65.6;44.8
76045;PMS7003;64741;41.730;44.788;2023-03-11T18:04:05;79.8;69.8;47
76045;PMS7003;64741;41.730;44.788;2023-03-11T18:09:05;76.8;65.2;44.6
76045;PMS7003;64741;41.730;44.788;2023-03-11T18:14:05;75.6;66;43.4
76045;PMS7003;64741;41.730;44.788;2023-03-11T18:19:09;76.2;65.2;43.6
76045;PMS7003;64741;41.730;44.788;2023-03-11T18:24:07;75.6;63;42
76045;PMS7003;64741;41.730;44.788;2023-03-11T18:29:05;73.8;62;42.6
76045;PMS7003;64741;41.730;44.788;2023-03-11T18:34:05;74.6;64;43.6
76045;PMS7003;64741;41.730;44.788;2023-03-11T18:39:08;75.6;64.6;44.8
76045;PMS7003;64741;41.730;44.788;2023-03-11T18:44:09;74.4;61;42
76045;PMS7003;64741;41.730;44.788;2023-03-11T18:49:09;72.6;60.6;40.2
76045;PMS7003;64741;41.730;44.788;2023-03-11T18:54:05;72;58.2;39
76045;PMS7003;64741;41.730;44.788;2023-03-11T18:59:08;70.2;56.4;37.8
76045;PMS7003;64741;41.730;44.788;2023-03-11T19:04:08;70.8;57;37.6
76045;PMS7003;64741;41.730;44.788;2023-03-11T19:08:47;68.4;53;35.4
76045;PMS7003;64741;41.730;44.788;2023-03-11T19:13:51;69.6;54.4;36.4
76045;PMS7003;64741;41.730;44.788;2023-03-11T19:19:07;63.2;49.4;33.4
76045;PMS7003;64741;41.730;44.788;2023-03-11T19:24:09;52.4;41;27.8
76045;PMS7003;64741;41.730;44.788;2023-03-11T19:29:08;39.2;32.6;22.8
76045;PMS7003;64741;41.730;44.788;2023-03-11T19:34:13;27.2;24.2;16.6
76045;PMS7003;64741;41.730;44.788;2023-03-11T19:39:09;17.8;15.8;11.8
76045;PMS7003;64741;41.730;44.788;2023-03-11T19:44:07;14.4;11.8;9
76045;PMS7003;64741;41.730;44.788;2023-03-11T19:49:07;10.2;8.6;6
76045;PMS7003;64741;41.730;44.788;2023-03-11T19:54:08;7;5.8;3.8
76045;PMS7003;64741;41.730;44.788;2023-03-11T19:59:13;5;4.6;2.8
76045;PMS7003;64741;41.730;44.788;2023-03-11T20:04:09;5.2;3.8;2.6
76045;PMS7003;64741;41.730;44.788;2023-03-11T20:09:07;3.6;3;2.4
76045;PMS7003;64741;41.730;44.788;2023-03-11T20:14:09;3.4;2.8;1.8
76045;PMS7003;64741;41.730;44.788;2023-03-11T20:19:09;2.6;2.2;1.4
76045;PMS7003;64741;41.730;44.788;2023-03-11T20:24:13;2.6;2;1
76045;PMS7003;64741;41.730;44.788;2023-03-11T20:29:09;2.2;2;1.2
76045;PMS7003;64741;41.730;44.788;2023-03-11T20:34:08;2.4;1.8;1.2
76045;PMS7003;64741;41.730;44.788;2023-03-11T20:39:09;2.2;2;1.4
76045;PMS7003;64741;41.730;44.788;2023-03-11T20:43:55;2;1.6;1
76045;PMS7003;64741;41.730;44.788;2023-03-11T20:49:11;1.8;1.8;1.2
76045;PMS7003;64741;41.730;44.788;2023-03-11T20:54:07;1.8;1.4;0.6
76045;PMS7003;64741;41.730;44.788;2023-03-11T20:59:08;3;2;1.4
76045;PMS7003;64741;41.730;44.788;2023-03-11T21:04:07;2.8;2.8;2.2
76045;PMS7003;64741;41.730;44.788;2023-03-11T21:09:06;5;4.6;3.4
76045;PMS7003;64741;41.730;44.788;2023-03-11T21:14:13;4.6;3.8;2.6
76045;PMS7003;64741;41.730;44.788;2023-03-11T21:19:07;6.2;5.4;4
76045;PMS7003;64741;41.730;44.788;2023-03-11T21:24:08;7.8;7;4.8
76045;PMS7003;64741;41.730;44.788;2023-03-11T21:29:01;8.8;7.2;6
76045;PMS7003;64741;41.730;44.788;2023-03-11T21:34:05;8.8;7.6;5.8
76045;PMS7003;64741;41.730;44.788;2023-03-11T21:39:03;9.6;8;6.2
76045;PMS7003;64741;41.730;44.788;2023-03-11T21:44:09;9.6;8.2;6
76045;PMS7003;64741;41.730;44.788;2023-03-11T21:49:05;9.8;9;6.6
76045;PMS7003;64741;41.730;44.788;2023-03-11T21:54:05;11.6;9.4;6.6
76045;PMS7003;64741;41.730;44.788;2023-03-11T21:59:05;10;9;6.4
76045;PMS7003;64741;41.730;44.788;2023-03-11T22:04:05;10.8;10.2;7.6
76045;PMS7003;64741;41.730;44.788;2023-03-11T22:09:09;11.2;9.4;7
76045;PMS7003;64741;41.730;44.788;2023-03-11T22:14:05;10.8;9;7
76045;PMS7003;64741;41.730;44.788;2023-03-11T22:19:05;11.6;8.8;7
76045;PMS7003;64741;41.730;44.788;2023-03-11T22:24:05;12.6;11.4;8
76045;PMS7003;64741;41.730;44.788;2023-03-11T22:29:05;11.6;10.2;8
76045;PMS7003;64741;41.730;44.788;2023-03-11T22:34:09;12.4;11.2;8.6
76045;PMS7003;64741;41.730;44.788;2023-03-11T22:39:05;13;11;8.3
76045;PMS7003;64741;41.730;44.788;2023-03-11T22:44:05;12.4;11;7.6
76045;PMS7003;64741;41.730;44.788;2023-03-11T22:49:05;12;11.8;8.4
76045;PMS7003;64741;41.730;44.788;2023-03-11T22:53:53;11.8;10.4;7.8
76045;PMS7003;64741;41.730;44.788;2023-03-11T22:59:09;11.4;10.2;7.4
76045;PMS7003;64741;41.730;44.788;2023-03-11T23:04:01;13.4;12;8.4
76045;PMS7003;64741;41.730;44.788;2023-03-11T23:09:05;13.2;11.4;7.8
76045;PMS7003;64741;41.730;44.788;2023-03-11T23:14:03;13.4;11.6;8.8
76045;PMS7003;64741;41.730;44.788;2023-03-11T23:19:03;12.2;10.6;7.6
76045;PMS7003;64741;41.730;44.788;2023-03-11T23:24:07;13.8;11.8;9
76045;PMS7003;64741;41.730;44.788;2023-03-11T23:29:01;13;10.8;8
76045;PMS7003;64741;41.730;44.788;2023-03-11T23:34:05;11.2;9.6;8
76045;PMS7003;64741;41.730;44.788;2023-03-11T23:39:03;13.4;12.4;9
76045;PMS7003;64741;41.730;44.788;2023-03-11T23:44:04;13.6;11.2;8.2
76045;PMS7003;64741;41.730;44.788;2023-03-11T23:49:05;13.4;11.8;9.2
76045;PMS7003;64741;41.730;44.788;2023-03-11T23:53:59;13;10.4;8
76045;PMS7003;64741;41.730;44.788;2023-03-11T23:59:03;13;10.4;7.2
